Time;durP1;ratioP1;P1;durP2;ratioP2;P2;SDS_P1;SDS_P2;PMS_P1;PMS_P2;Temp;Humidity;BMP_temperature;BMP_pressure;BME280_temperature;BME280_humidity;BME280_pressure;Samples;Min_cycle;Max_cycle;Signal;HPM_P1;HPM_P2
2023/12/15 00:01:33;;;;;;;4.07;2.30;;;;;;;;;;5149530;28;20046;-66
2023/12/15 00:04:04;;;;;;;5.70;2.08;;;;;;;;;;5143389;28;20047;-66
2023/12/15 00:06:35;;;;;;;4.43;1.85;;;;;;;;;;5127858;28;20038;-65
2023/12/15 00:09:06;;;;;;;3.85;1.67;;;;;;;;;;5127660;28;20042;-66
2023/12/15 00:11:37;;;;;;;6.88;2.17;;;;;;;;;;5143297;28;20121;-67
2023/12/15 00:14:09;;;;;;;3.58;1.55;;;;;;;;;;5143916;28;20045;-68
2023/12/15 00:16:40;;;;;;;4.18;2.08;;;;;;;;;;5144064;28;20342;-66
2023/12/15 00:19:11;;;;;;;5.70;1.80;;;;;;;;;;5144302;28;20105;-67
2023/12/15 00:21:42;;;;;;;3.90;2.20;;;;;;;;;;5143585;28;20047;-65
2023/12/15 00:24:13;;;;;;;2.80;1.60;;;;;;;;;;5128694;28;20117;-62
2023/12/15 00:26:44;;;;;;;4.00;1.85;;;;;;;;;;5143872;28;20560;-63
2023/12/15 00:29:16;;;;;;;5.80;1.75;;;;;;;;;;5127416;28;20043;-66
2023/12/15 00:31:47;;;;;;;4.32;1.58;;;;;;;;;;5152895;28;20049;-66
2023/12/15 00:34:18;;;;;;;5.00;2.38;;;;;;;;;;5145809;28;20039;-65
2023/12/15 00:36:49;;;;;;;5.80;2.03;;;;;;;;;;5127756;28;20553;-64
2023/12/15 00:39:20;;;;;;;3.78;1.67;;;;;;;;;;5143341;28;20043;-65
2023/12/15 00:41:51;;;;;;;3.78;1.70;;;;;;;;;;5143350;28;20053;-63
2023/12/15 00:44:22;;;;;;;5.53;1.95;;;;;;;;;;5143286;28;20042;-64
2023/12/15 00:46:53;;;;;;;4.13;1.67;;;;;;;;;;5143709;28;20522;-65
2023/12/15 00:49:24;;;;;;;2.78;1.70;;;;;;;;;;5143417;28;20043;-61
2023/12/15 00:51:55;;;;;;;4.35;2.40;;;;;;;;;;5143626;28;20528;-65
2023/12/15 00:54:26;;;;;;;5.65;2.05;;;;;;;;;;5143483;28;20435;-65
2023/12/15 00:56:58;;;;;;;3.85;2.22;;;;;;;;;;5127282;28;20046;-66
2023/12/15 00:59:29;;;;;;;4.53;1.77;;;;;;;;;;5138322;28;20046;-58
2023/12/15 01:02:00;;;;;;;2.83;1.80;;;;;;;;;;5160577;28;20054;-58
2023/12/15 01:04:33;;;;;;;8.10;2.50;;;;;;;;;;5143575;28;20374;-58
2023/12/15 01:07:04;;;;;;;4.32;2.03;;;;;;;;;;5143059;28;20512;-58
2023/12/15 01:09:36;;;;;;;2.97;1.70;;;;;;;;;;5142804;28;20047;-58
2023/12/15 01:12:07;;;;;;;4.85;2.17;;;;;;;;;;5142865;28;20043;-58
2023/12/15 01:14:38;;;;;;;4.30;2.00;;;;;;;;;;5126149;28;20121;-58
2023/12/15 01:17:09;;;;;;;7.30;2.15;;;;;;;;;;5142545;28;20039;-58
2023/12/15 01:19:40;;;;;;;2.90;1.58;;;;;;;;;;5142980;28;20418;-57
2023/12/15 01:22:11;;;;;;;3.63;1.70;;;;;;;;;;5145793;28;20105;-63
2023/12/15 01:24:42;;;;;;;3.13;1.88;;;;;;;;;;5131806;28;20030;-63
2023/12/15 01:27:14;;;;;;;4.80;2.45;;;;;;;;;;5150159;28;20054;-65
2023/12/15 01:29:45;;;;;;;4.43;2.10;;;;;;;;;;5142342;28;20039;-65
2023/12/15 01:32:16;;;;;;;4.63;2.20;;;;;;;;;;5142153;28;20129;-65
2023/12/15 01:34:47;;;;;;;3.92;2.03;;;;;;;;;;5142594;28;20047;-65
2023/12/15 01:37:18;;;;;;;6.65;1.95;;;;;;;;;;5125770;28;20063;-64
2023/12/15 01:39:50;;;;;;;4.53;2.20;;;;;;;;;;5142450;28;20050;-64
2023/12/15 01:42:21;;;;;;;3.83;1.77;;;;;;;;;;5131199;28;20475;-64
2023/12/15 01:44:52;;;;;;;6.13;2.17;;;;;;;;;;5126780;28;20422;-64
2023/12/15 01:47:24;;;;;;;4.47;2.30;;;;;;;;;;5138844;28;20129;-64
2023/12/15 01:49:56;;;;;;;7.85;2.58;;;;;;;;;;5126393;28;20046;-64
2023/12/15 01:52:27;;;;;;;7.70;2.63;;;;;;;;;;5142295;28;20043;-65
2023/12/15 01:54:58;;;;;;;5.28;2.55;;;;;;;;;;5126153;28;20070;-66
2023/12/15 01:57:29;;;;;;;2.13;1.42;;;;;;;;;;5141945;28;20186;-65
2023/12/15 02:00:06;;;;;;;3.95;2.10;;;;;;;;;;5141997;28;20065;-65
2023/12/15 02:02:37;;;;;;;3.75;2.08;;;;;;;;;;5159276;28;20474;-60
2023/12/15 02:05:08;;;;;;;4.20;1.90;;;;;;;;;;5128317;28;20086;-60
2023/12/15 02:07:40;;;;;;;6.18;2.28;;;;;;;;;;5126004;28;20047;-59
2023/12/15 02:10:11;;;;;;;4.35;2.10;;;;;;;;;;5171577;28;20592;-59
2023/12/15 02:12:42;;;;;;;3.67;1.88;;;;;;;;;;5126026;28;20078;-59
2023/12/15 02:15:13;;;;;;;6.63;1.98;;;;;;;;;;5142510;28;20418;-59
2023/12/15 02:17:44;;;;;;;6.72;2.33;;;;;;;;;;5140663;28;20490;-59
2023/12/15 02:20:15;;;;;;;4.55;2.10;;;;;;;;;;5157497;28;20031;-60
2023/12/15 02:22:46;;;;;;;3.45;2.20;;;;;;;;;;5126181;28;20043;-61
2023/12/15 02:25:18;;;;;;;3.58;2.17;;;;;;;;;;5146621;28;20073;-61
2023/12/15 02:27:49;;;;;;;6.60;2.67;;;;;;;;;;5168664;28;20494;-64
2023/12/15 02:30:20;;;;;;;3.33;2.13;;;;;;;;;;5145919;28;20043;-64
2023/12/15 02:32:52;;;;;;;6.47;2.65;;;;;;;;;;5140648;28;20630;-61
2023/12/15 02:35:23;;;;;;;4.50;2.15;;;;;;;;;;5129753;28;20073;-58
2023/12/15 02:37:55;;;;;;;4.47;2.17;;;;;;;;;;5145938;28;20112;-60
2023/12/15 02:40:26;;;;;;;5.18;2.70;;;;;;;;;;5129616;28;20129;-60
2023/12/15 02:42:57;;;;;;;7.47;2.30;;;;;;;;;;5129755;28;20043;-60
2023/12/15 02:45:28;;;;;;;4.13;2.13;;;;;;;;;;5150918;28;20449;-60
2023/12/15 02:47:59;;;;;;;5.45;2.90;;;;;;;;;;5156458;28;20074;-60
2023/12/15 02:50:30;;;;;;;6.40;2.80;;;;;;;;;;5145250;28;20167;-60
2023/12/15 02:53:01;;;;;;;7.18;2.92;;;;;;;;;;5145481;28;20062;-60
2023/12/15 02:55:33;;;;;;;4.18;2.22;;;;;;;;;;5145266;28;20034;-60
2023/12/15 02:58:04;;;;;;;3.95;2.25;;;;;;;;;;5145601;28;20046;-60
2023/12/15 03:00:35;;;;;;;6.07;2.47;;;;;;;;;;5134320;28;20050;-60
2023/12/15 03:03:06;;;;;;;4.30;2.33;;;;;;;;;;5168963;28;20482;-61
2023/12/15 03:05:37;;;;;;;7.88;3.03;;;;;;;;;;5128966;28;20153;-61
2023/12/15 03:08:08;;;;;;;6.30;2.38;;;;;;;;;;5144528;28;20043;-61
2023/12/15 03:10:40;;;;;;;5.43;2.65;;;;;;;;;;5148915;28;20118;-59
2023/12/15 03:13:11;;;;;;;4.28;2.85;;;;;;;;;;5144943;28;20050;-60
2023/12/15 03:15:42;;;;;;;3.97;2.13;;;;;;;;;;5128652;28;20066;-59
2023/12/15 03:18:13;;;;;;;6.90;2.20;;;;;;;;;;5128409;28;20039;-59
2023/12/15 03:20:45;;;;;;;3.70;2.38;;;;;;;;;;5128390;28;20130;-59
2023/12/15 03:23:16;;;;;;;4.65;2.30;;;;;;;;;;5141080;28;20117;-58
2023/12/15 03:25:47;;;;;;;5.50;2.20;;;;;;;;;;5144499;28;20138;-58
2023/12/15 03:28:18;;;;;;;3.47;2.05;;;;;;;;;;5144242;28;20467;-61
2023/12/15 03:30:50;;;;;;;4.15;2.17;;;;;;;;;;5153829;28;20039;-60
2023/12/15 03:33:25;;;;;;;6.70;2.08;;;;;;;;;;5145037;28;20520;-61
2023/12/15 03:35:56;;;;;;;6.18;2.28;;;;;;;;;;5128409;28;20062;-60
2023/12/15 03:38:27;;;;;;;4.78;2.15;;;;;;;;;;5143356;28;20043;-59
2023/12/15 03:40:58;;;;;;;4.78;2.33;;;;;;;;;;5144904;28;20614;-59
2023/12/15 03:43:29;;;;;;;4.93;2.60;;;;;;;;;;5144530;28;20114;-60
2023/12/15 03:46:01;;;;;;;4.55;2.47;;;;;;;;;;5157078;28;20039;-58
2023/12/15 03:48:32;;;;;;;7.20;2.30;;;;;;;;;;5128449;28;20474;-62
2023/12/15 03:51:04;;;;;;;5.07;2.25;;;;;;;;;;5144009;28;20042;-63
2023/12/15 03:53:36;;;;;;;3.25;1.58;;;;;;;;;;5144861;28;20043;-64
2023/12/15 03:56:08;;;;;;;4.80;1.58;;;;;;;;;;5144337;28;20045;-60
2023/12/15 03:58:39;;;;;;;2.63;1.60;;;;;;;;;;5144093;28;20042;-62
2023/12/15 04:01:10;;;;;;;3.72;1.63;;;;;;;;;;5128368;28;20478;-62
2023/12/15 04:03:41;;;;;;;3.05;1.40;;;;;;;;;;5144249;28;20060;-62
2023/12/15 04:06:12;;;;;;;4.10;1.70;;;;;;;;;;5127812;28;20050;-65
2023/12/15 04:08:43;;;;;;;2.22;1.48;;;;;;;;;;5149061;28;20114;-59
2023/12/15 04:11:18;;;;;;;3.33;2.10;;;;;;;;;;5166830;28;20050;-59
2023/12/15 04:13:49;;;;;;;3.55;1.88;;;;;;;;;;5147696;28;20042;-59
2023/12/15 04:16:20;;;;;;;4.75;2.10;;;;;;;;;;5143529;28;20082;-59
2023/12/15 04:18:51;;;;;;;3.85;1.80;;;;;;;;;;5143888;28;20049;-60
2023/12/15 04:21:22;;;;;;;3.90;1.90;;;;;;;;;;5144085;28;20062;-60
2023/12/15 04:23:53;;;;;;;6.20;1.52;;;;;;;;;;5143690;28;20050;-60
2023/12/15 04:26:25;;;;;;;3.80;1.58;;;;;;;;;;5143046;28;20043;-60
2023/12/15 04:28:56;;;;;;;2.80;1.38;;;;;;;;;;5127540;28;20078;-60
2023/12/15 04:31:28;;;;;;;8.95;2.00;;;;;;;;;;5127194;28;20034;-60
2023/12/15 04:33:59;;;;;;;3.70;1.50;;;;;;;;;;5143389;28;20173;-59
2023/12/15 04:36:30;;;;;;;5.30;3.10;;;;;;;;;;5143164;28;20125;-60
2023/12/15 04:39:02;;;;;;;6.60;1.63;;;;;;;;;;5142986;28;20108;-60
2023/12/15 04:41:33;;;;;;;2.13;1.35;;;;;;;;;;5127078;28;20039;-59
2023/12/15 04:44:05;;;;;;;3.65;1.67;;;;;;;;;;5142988;28;20054;-59
2023/12/15 04:46:36;;;;;;;3.72;1.73;;;;;;;;;;5127055;28;20046;-59
2023/12/15 04:49:08;;;;;;;4.10;1.58;;;;;;;;;;5139488;28;20054;-60
2023/12/15 04:51:39;;;;;;;2.00;1.30;;;;;;;;;;5143003;28;20039;-58
2023/12/15 04:54:10;;;;;;;2.95;1.20;;;;;;;;;;5142830;28;20046;-60
2023/12/15 04:56:41;;;;;;;2.58;1.70;;;;;;;;;;5142866;28;20046;-59
2023/12/15 04:59:12;;;;;;;3.58;1.30;;;;;;;;;;5142554;28;20034;-59
2023/12/15 05:01:46;;;;;;;6.07;1.98;;;;;;;;;;5126648;28;20066;-59
2023/12/15 05:04:17;;;;;;;4.47;1.67;;;;;;;;;;5142693;28;20047;-59
2023/12/15 05:06:48;;;;;;;1.70;0.98;;;;;;;;;;5142466;28;20080;-58
2023/12/15 05:09:20;;;;;;;4.30;1.63;;;;;;;;;;5126374;28;20382;-60
2023/12/15 05:11:51;;;;;;;4.53;1.15;;;;;;;;;;5147331;28;20371;-60
2023/12/15 05:14:22;;;;;;;2.80;1.42;;;;;;;;;;5150940;28;20042;-60
2023/12/15 05:16:53;;;;;;;2.03;1.25;;;;;;;;;;5142069;28;20037;-60
2023/12/15 05:19:24;;;;;;;3.70;1.20;;;;;;;;;;5142335;28;20058;-60
2023/12/15 05:21:55;;;;;;;4.30;1.20;;;;;;;;;;5146408;28;20472;-57
2023/12/15 05:24:26;;;;;;;3.60;1.40;;;;;;;;;;5142692;28;20050;-58
2023/12/15 05:26:57;;;;;;;4.50;2.55;;;;;;;;;;5142769;28;20477;-57
2023/12/15 05:29:29;;;;;;;4.18;1.63;;;;;;;;;;5126218;28;20069;-57
2023/12/15 05:32:00;;;;;;;3.60;1.73;;;;;;;;;;5126548;28;20178;-57
2023/12/15 05:34:31;;;;;;;3.03;1.25;;;;;;;;;;5136720;28;20042;-57
2023/12/15 05:37:02;;;;;;;2.70;1.33;;;;;;;;;;5142275;28;20038;-58
2023/12/15 05:39:33;;;;;;;2.22;1.05;;;;;;;;;;5146877;28;20478;-65
2023/12/15 05:42:04;;;;;;;4.85;1.67;;;;;;;;;;5142123;28;20042;-61
2023/12/15 05:44:38;;;;;;;4.53;1.83;;;;;;;;;;5141895;28;20047;-63
2023/12/15 05:47:09;;;;;;;3.47;1.73;;;;;;;;;;5126306;28;20193;-64
2023/12/15 05:49:40;;;;;;;6.70;1.75;;;;;;;;;;5126257;28;20046;-63
2023/12/15 05:52:11;;;;;;;4.47;1.70;;;;;;;;;;5142367;28;20039;-63
2023/12/15 05:54:42;;;;;;;3.30;2.03;;;;;;;;;;5142847;28;20280;-65
2023/12/15 05:57:14;;;;;;;3.90;1.85;;;;;;;;;;5126219;28;20132;-57
2023/12/15 05:59:45;;;;;;;3.40;1.90;;;;;;;;;;5142548;28;21089;-58
2023/12/15 06:02:17;;;;;;;5.32;2.22;;;;;;;;;;5141638;28;20055;-58
2023/12/15 06:04:48;;;;;;;5.03;1.90;;;;;;;;;;5142140;28;20039;-57
2023/12/15 06:07:19;;;;;;;4.85;2.20;;;;;;;;;;5141992;28;20043;-58
2023/12/15 06:09:51;;;;;;;5.30;2.35;;;;;;;;;;5142153;28;20548;-58
2023/12/15 06:12:22;;;;;;;6.15;2.25;;;;;;;;;;5142231;28;20492;-57
2023/12/15 06:14:53;;;;;;;3.58;2.15;;;;;;;;;;5125356;28;20035;-58
2023/12/15 06:17:24;;;;;;;4.40;2.25;;;;;;;;;;5142196;28;20043;-58
2023/12/15 06:19:55;;;;;;;4.63;2.38;;;;;;;;;;5142353;28;20405;-58
2023/12/15 06:22:26;;;;;;;5.82;2.38;;;;;;;;;;5125869;28;20047;-59
2023/12/15 06:24:58;;;;;;;5.55;2.35;;;;;;;;;;5126078;28;20078;-58
2023/12/15 06:27:29;;;;;;;4.80;2.60;;;;;;;;;;5141733;28;20039;-57
2023/12/15 06:30:00;;;;;;;4.88;2.53;;;;;;;;;;5125995;28;20379;-58
2023/12/15 06:32:31;;;;;;;5.95;2.60;;;;;;;;;;5141581;28;20045;-57
2023/12/15 06:35:02;;;;;;;3.90;2.30;;;;;;;;;;5142157;28;20125;-57
2023/12/15 06:37:33;;;;;;;5.65;2.60;;;;;;;;;;5141782;28;20170;-57
2023/12/15 06:40:04;;;;;;;5.05;2.45;;;;;;;;;;5147224;28;20043;-56
2023/12/15 06:42:35;;;;;;;6.20;2.38;;;;;;;;;;5142021;28;20042;-58
2023/12/15 06:45:08;;;;;;;6.40;2.30;;;;;;;;;;5142306;28;20466;-57
2023/12/15 06:47:39;;;;;;;;;;;;;;;;;;5143444;28;20050;-58
2023/12/15 06:50:10;;;;;;;4.60;2.03;;;;;;;;;;5126189;28;19925;-58
2023/12/15 06:52:42;;;;;;;3.93;1.93;;;;;;;;;;5125639;28;20049;-57
2023/12/15 06:55:13;;;;;;;4.95;1.67;;;;;;;;;;5141909;28;20121;-56
2023/12/15 06:57:44;;;;;;;6.35;1.88;;;;;;;;;;5142046;28;20050;-56
2023/12/15 07:00:15;;;;;;;4.55;1.88;;;;;;;;;;5128140;28;20051;-65
2023/12/15 07:02:46;;;;;;;3.63;1.90;;;;;;;;;;5168112;28;20514;-58
2023/12/15 07:05:18;;;;;;;4.53;2.13;;;;;;;;;;5156360;28;20743;-56
2023/12/15 07:07:49;;;;;;;3.65;2.17;;;;;;;;;;5125337;28;20058;-58
2023/12/15 07:10:20;;;;;;;6.28;2.15;;;;;;;;;;5157169;28;20046;-59
2023/12/15 07:12:51;;;;;;;6.90;2.22;;;;;;;;;;5141700;28;20085;-57
2023/12/15 07:15:22;;;;;;;4.15;2.28;;;;;;;;;;5138024;28;20046;-57
2023/12/15 07:17:53;;;;;;;6.63;2.47;;;;;;;;;;5151815;28;20038;-56
2023/12/15 07:20:25;;;;;;;5.07;2.60;;;;;;;;;;5144550;28;20078;-57
2023/12/15 07:22:56;;;;;;;6.07;3.00;;;;;;;;;;5128662;28;20049;-56
2023/12/15 07:25:27;;;;;;;5.55;2.45;;;;;;;;;;5129392;28;20050;-57
2023/12/15 07:27:58;;;;;;;6.97;3.20;;;;;;;;;;5155346;28;20047;-56
2023/12/15 07:30:29;;;;;;;4.22;2.53;;;;;;;;;;5128058;28;20136;-57
2023/12/15 07:33:00;;;;;;;5.00;2.47;;;;;;;;;;5144345;28;20111;-57
2023/12/15 07:35:32;;;;;;;5.88;2.50;;;;;;;;;;5144341;28;20047;-59
2023/12/15 07:38:04;;;;;;;9.93;2.92;;;;;;;;;;5128352;28;20405;-57
2023/12/15 07:40:35;;;;;;;7.30;2.70;;;;;;;;;;5143875;28;20177;-58
2023/12/15 07:43:06;;;;;;;6.30;2.85;;;;;;;;;;5144753;28;20042;-56
2023/12/15 07:45:37;;;;;;;6.93;2.90;;;;;;;;;;5144077;28;20039;-56
2023/12/15 07:48:08;;;;;;;7.47;2.97;;;;;;;;;;5144256;28;20467;-58
2023/12/15 07:50:39;;;;;;;6.60;3.17;;;;;;;;;;5144088;28;20037;-56
2023/12/15 07:53:11;;;;;;;8.95;2.33;;;;;;;;;;5127727;28;20035;-58
2023/12/15 07:55:42;;;;;;;5.05;2.42;;;;;;;;;;5143834;28;20050;-59
2023/12/15 07:58:13;;;;;;;9.68;2.70;;;;;;;;;;5144020;28;20043;-60
2023/12/15 08:00:44;;;;;;;3.17;2.03;;;;;;;;;;5127521;28;20106;-57
2023/12/15 08:03:16;;;;;;;6.00;2.00;;;;;;;;;;5144244;28;20047;-57
2023/12/15 08:05:47;;;;;;;7.28;2.25;;;;;;;;;;5128256;28;20050;-57
2023/12/15 08:08:18;;;;;;;2.85;1.77;;;;;;;;;;5143956;28;20455;-57
2023/12/15 08:10:49;;;;;;;4.43;2.20;;;;;;;;;;5133020;28;20042;-57
2023/12/15 08:13:20;;;;;;;5.93;2.55;;;;;;;;;;5130859;28;20131;-58
2023/12/15 08:15:51;;;;;;;8.17;2.30;;;;;;;;;;5162482;28;20041;-58
2023/12/15 08:18:22;;;;;;;3.67;2.00;;;;;;;;;;5142907;28;20054;-57
2023/12/15 08:20:54;;;;;;;5.07;2.30;;;;;;;;;;5149287;28;20069;-58
2023/12/15 08:23:25;;;;;;;4.35;1.92;;;;;;;;;;5128117;28;20385;-60
2023/12/15 08:25:56;;;;;;;3.10;1.60;;;;;;;;;;5127153;28;20482;-59
2023/12/15 08:28:27;;;;;;;4.40;1.55;;;;;;;;;;5156451;28;20450;-59
2023/12/15 08:30:59;;;;;;;2.13;1.10;;;;;;;;;;5143315;28;20047;-58
2023/12/15 08:33:30;;;;;;;3.78;1.13;;;;;;;;;;5143338;28;20121;-58
2023/12/15 08:36:01;;;;;;;3.65;1.10;;;;;;;;;;5130035;28;20113;-58
2023/12/15 08:38:32;;;;;;;2.25;1.13;;;;;;;;;;5147227;28;20405;-57
2023/12/15 08:41:03;;;;;;;3.03;1.15;;;;;;;;;;5143044;28;20071;-58
2023/12/15 08:43:34;;;;;;;3.38;0.90;;;;;;;;;;5143883;28;20613;-58
2023/12/15 08:46:06;;;;;;;4.65;1.20;;;;;;;;;;5157547;28;20046;-58
2023/12/15 08:48:37;;;;;;;1.60;0.83;;;;;;;;;;5143302;28;20056;-60
2023/12/15 08:51:08;;;;;;;1.67;1.05;;;;;;;;;;5127271;28;20038;-58
2023/12/15 08:53:39;;;;;;;2.72;1.33;;;;;;;;;;5142960;28;20042;-58
2023/12/15 08:56:10;;;;;;;5.65;1.63;;;;;;;;;;5142612;28;20107;-59
2023/12/15 08:58:41;;;;;;;5.15;2.35;;;;;;;;;;5143145;28;20144;-58
2023/12/15 09:01:13;;;;;;;6.05;2.33;;;;;;;;;;5147952;28;20058;-57
2023/12/15 09:03:44;;;;;;;7.45;2.13;;;;;;;;;;5143236;28;20156;-58
2023/12/15 09:06:16;;;;;;;7.82;2.40;;;;;;;;;;5143231;28;20354;-56
2023/12/15 09:08:47;;;;;;;8.65;2.53;;;;;;;;;;5142753;28;20039;-58
2023/12/15 09:11:18;;;;;;;7.07;2.42;;;;;;;;;;5126928;28;20109;-57
2023/12/15 09:13:49;;;;;;;3.38;1.60;;;;;;;;;;5143156;28;20061;-56
2023/12/15 09:16:20;;;;;;;4.10;1.45;;;;;;;;;;5142599;28;20066;-55
2023/12/15 09:18:51;;;;;;;3.00;1.15;;;;;;;;;;5142767;28;20105;-56
2023/12/15 09:21:22;;;;;;;3.13;1.00;;;;;;;;;;5142673;28;20040;-56
2023/12/15 09:23:56;;;;;;;1.98;0.95;;;;;;;;;;5142694;28;20050;-55
2023/12/15 09:26:27;;;;;;;2.15;1.10;;;;;;;;;;5142976;28;20109;-56
2023/12/15 09:28:58;;;;;;;1.77;0.95;;;;;;;;;;5142611;28;20043;-55
2023/12/15 09:31:29;;;;;;;2.13;0.90;;;;;;;;;;5141793;28;20065;-58
2023/12/15 09:34:00;;;;;;;1.80;0.70;;;;;;;;;;5158603;28;20047;-57
2023/12/15 09:36:31;;;;;;;5.05;1.90;;;;;;;;;;5127497;28;20073;-56
2023/12/15 09:39:03;;;;;;;6.90;1.75;;;;;;;;;;5158839;28;20359;-56
2023/12/15 09:41:34;;;;;;;5.10;2.25;;;;;;;;;;5133124;28;20504;-56
2023/12/15 09:44:05;;;;;;;7.75;2.58;;;;;;;;;;5142573;28;20347;-56
2023/12/15 09:46:37;;;;;;;7.75;2.40;;;;;;;;;;5142212;28;20043;-57
2023/12/15 09:49:08;;;;;;;6.82;2.20;;;;;;;;;;5142748;28;20031;-57
2023/12/15 09:51:40;;;;;;;8.20;2.55;;;;;;;;;;5142442;28;20042;-56
2023/12/15 09:54:11;;;;;;;5.70;2.38;;;;;;;;;;5142178;28;20042;-58
2023/12/15 09:56:43;;;;;;;7.40;2.65;;;;;;;;;;5142455;28;20540;-58
2023/12/15 09:59:14;;;;;;;11.07;2.85;;;;;;;;;;5141694;28;20039;-58
2023/12/15 10:01:45;;;;;;;6.93;2.55;;;;;;;;;;5142276;28;20478;-58
2023/12/15 10:04:16;;;;;;;4.95;2.33;;;;;;;;;;5141631;28;20089;-58
2023/12/15 10:06:48;;;;;;;6.03;2.58;;;;;;;;;;5125807;28;20047;-57
2023/12/15 10:09:19;;;;;;;5.45;2.40;;;;;;;;;;5125737;28;20065;-57
2023/12/15 10:11:50;;;;;;;8.18;2.80;;;;;;;;;;5125339;28;20086;-57
2023/12/15 10:14:22;;;;;;;6.45;2.92;;;;;;;;;;5141968;28;20481;-58
2023/12/15 10:16:53;;;;;;;7.30;3.05;;;;;;;;;;5125562;28;20049;-58
2023/12/15 10:19:25;;;;;;;6.65;2.58;;;;;;;;;;5142115;28;20046;-57
2023/12/15 10:21:56;;;;;;;5.27;2.70;;;;;;;;;;5126123;28;20339;-57
2023/12/15 10:24:27;;;;;;;3.58;2.38;;;;;;;;;;5142027;28;20050;-57
2023/12/15 10:27:02;;;;;;;6.17;2.50;;;;;;;;;;5137632;28;20043;-57
2023/12/15 10:29:33;;;;;;;7.03;2.67;;;;;;;;;;5141641;28;20054;-58
2023/12/15 10:32:05;;;;;;;6.97;2.47;;;;;;;;;;5141779;28;20045;-58
2023/12/15 10:34:36;;;;;;;4.50;2.40;;;;;;;;;;5141308;28;20066;-58
2023/12/15 10:37:08;;;;;;;3.75;1.98;;;;;;;;;;5126039;28;20039;-57
2023/12/15 10:39:39;;;;;;;3.83;2.05;;;;;;;;;;5142157;28;20386;-57
2023/12/15 10:42:10;;;;;;;4.83;2.43;;;;;;;;;;5141883;28;20051;-57
2023/12/15 10:44:42;;;;;;;5.40;2.20;;;;;;;;;;5126261;28;20385;-57
2023/12/15 10:47:13;;;;;;;2.35;1.55;;;;;;;;;;5130800;28;20045;-57
2023/12/15 10:49:46;;;;;;;4.70;1.73;;;;;;;;;;5146136;28;20051;-58
2023/12/15 10:52:21;;;;;;;5.60;1.05;;;;;;;;;;5145942;28;20132;-57
2023/12/15 10:54:52;;;;;;;2.97;1.13;;;;;;;;;;5130096;28;20508;-57
2023/12/15 10:57:24;;;;;;;1.90;0.90;;;;;;;;;;5129942;28;20034;-59
2023/12/15 10:59:55;;;;;;;4.20;0.85;;;;;;;;;;5145611;28;20719;-59
2023/12/15 11:02:28;;;;;;;2.72;1.10;;;;;;;;;;5131976;28;20486;-59
2023/12/15 11:05:02;;;;;;;2.83;0.60;;;;;;;;;;5162089;28;20057;-58
2023/12/15 11:07:33;;;;;;;2.03;1.00;;;;;;;;;;5145463;28;20509;-58
2023/12/15 11:10:05;;;;;;;3.00;0.80;;;;;;;;;;5147364;28;20041;-58
2023/12/15 11:12:37;;;;;;;2.70;0.88;;;;;;;;;;5129254;28;20039;-58
2023/12/15 11:15:08;;;;;;;;;;;;;;;;;;5145834;28;20038;-57
2023/12/15 11:17:43;;;;;;;1.52;0.88;;;;;;;;;;5136080;28;19961;-57
2023/12/15 11:20:21;;;;;;;2.30;0.90;;;;;;;;;;5144806;28;20039;-58
2023/12/15 11:22:52;;;;;;;2.80;0.90;;;;;;;;;;5144433;28;20050;-58
2023/12/15 11:25:27;;;;;;;2.60;0.70;;;;;;;;;;5144488;28;20050;-57
2023/12/15 11:28:07;;;;;;;1.42;0.68;;;;;;;;;;5144606;28;20478;-59
2023/12/15 11:30:44;;;;;;;1.67;0.85;;;;;;;;;;5128751;28;20039;-58
2023/12/15 11:33:28;;;;;;;2.80;0.55;;;;;;;;;;5128960;28;20505;-59
2023/12/15 11:36:00;;;;;;;2.22;0.77;;;;;;;;;;5128663;28;20042;-59
2023/12/15 11:38:31;;;;;;;2.88;1.13;;;;;;;;;;5145217;28;20402;-59
2023/12/15 11:41:02;;;;;;;3.42;1.20;;;;;;;;;;5144470;28;20046;-58
2023/12/15 11:43:36;;;;;;;1.90;0.80;;;;;;;;;;5144745;28;20039;-59
2023/12/15 11:46:07;;;;;;;2.80;0.90;;;;;;;;;;5143935;28;20423;-59
2023/12/15 11:48:38;;;;;;;1.45;0.60;;;;;;;;;;5128829;28;20065;-63
2023/12/15 11:51:10;;;;;;;1.40;0.70;;;;;;;;;;5129853;28;20525;-61
2023/12/15 11:53:42;;;;;;;2.03;0.90;;;;;;;;;;5144081;28;20070;-62
2023/12/15 11:56:14;;;;;;;1.88;0.50;;;;;;;;;;5128038;28;20102;-58
2023/12/15 11:58:45;;;;;;;;;;;;;;;;;;5144619;28;20560;-63
2023/12/15 12:01:17;;;;;;;1.25;0.40;;;;;;;;;;5144235;28;20369;-64
2023/12/15 12:03:48;;;;;;;1.83;0.60;;;;;;;;;;5143903;28;20049;-61
2023/12/15 12:06:23;;;;;;;2.53;0.40;;;;;;;;;;5144198;28;20054;-60
2023/12/15 12:08:54;;;;;;;3.70;0.40;;;;;;;;;;5143431;28;20047;-61
2023/12/15 12:11:25;;;;;;;3.03;0.68;;;;;;;;;;5144258;28;20053;-63
2023/12/15 12:14:02;;;;;;;7.30;0.40;;;;;;;;;;5148188;28;20038;-61
2023/12/15 12:16:33;;;;;;;1.92;0.50;;;;;;;;;;5143995;28;20089;-62
2023/12/15 12:19:04;;;;;;;1.50;0.50;;;;;;;;;;5128192;28;20054;-61
2023/12/15 12:21:37;;;;;;;0.95;0.35;;;;;;;;;;5144162;28;20147;-61
2023/12/15 12:24:08;;;;;;;3.40;0.57;;;;;;;;;;5143583;28;20043;-61
2023/12/15 12:26:40;;;;;;;2.13;0.45;;;;;;;;;;5143634;28;20054;-61
2023/12/15 12:29:13;;;;;;;2.67;0.40;;;;;;;;;;5127285;28;20781;-60
2023/12/15 12:31:45;;;;;;;1.70;0.28;;;;;;;;;;5134625;28;20115;-61
2023/12/15 12:34:16;;;;;;;1.65;0.50;;;;;;;;;;5148340;28;20039;-61
2023/12/15 12:36:47;;;;;;;0.30;0.30;;;;;;;;;;5127699;28;20039;-61
2023/12/15 12:39:27;;;;;;;2.65;0.40;;;;;;;;;;5130534;28;20422;-61
2023/12/15 12:41:58;;;;;;;2.58;0.50;;;;;;;;;;5135643;28;20078;-61
2023/12/15 12:44:29;;;;;;;1.27;0.60;;;;;;;;;;5156125;28;20050;-61
2023/12/15 12:47:00;;;;;;;1.88;0.50;;;;;;;;;;5143138;28;20370;-60
2023/12/15 12:49:32;;;;;;;1.90;0.90;;;;;;;;;;5143508;28;20043;-60
2023/12/15 12:52:03;;;;;;;3.30;0.60;;;;;;;;;;5127257;28;20049;-60
2023/12/15 12:54:34;;;;;;;3.45;0.50;;;;;;;;;;5143598;28;20381;-60
2023/12/15 12:57:07;;;;;;;1.90;0.60;;;;;;;;;;5143355;28;20034;-60
2023/12/15 12:59:43;;;;;;;1.10;0.30;;;;;;;;;;5143406;28;20375;-62
2023/12/15 13:02:14;;;;;;;2.40;0.63;;;;;;;;;;5142773;28;20050;-59
2023/12/15 13:04:45;;;;;;;1.27;0.50;;;;;;;;;;5127462;28;20442;-59
2023/12/15 13:07:17;;;;;;;1.40;0.20;;;;;;;;;;5143803;28;20046;-60
2023/12/15 13:09:48;;;;;;;2.28;0.32;;;;;;;;;;5142356;28;20046;-61
2023/12/15 13:12:19;;;;;;;1.05;0.30;;;;;;;;;;5141830;28;20055;-59
2023/12/15 13:14:51;;;;;;;1.13;0.40;;;;;;;;;;5142373;28;20094;-59
2023/12/15 13:17:22;;;;;;;1.00;0.35;;;;;;;;;;5126936;28;20490;-59
2023/12/15 13:19:54;;;;;;;0.80;0.25;;;;;;;;;;5126412;28;20113;-58
2023/12/15 13:22:27;;;;;;;1.20;0.40;;;;;;;;;;5142495;28;20486;-59
2023/12/15 13:24:58;;;;;;;2.30;0.45;;;;;;;;;;5127323;28;20038;-59
2023/12/15 13:27:29;;;;;;;0.63;0.22;;;;;;;;;;5142360;28;20043;-59
2023/12/15 13:30:00;;;;;;;1.23;0.35;;;;;;;;;;5126083;28;20113;-59
2023/12/15 13:32:32;;;;;;;2.13;0.35;;;;;;;;;;5126519;28;20039;-60
2023/12/15 13:35:03;;;;;;;0.73;0.40;;;;;;;;;;5126506;28;20069;-59
2023/12/15 13:37:35;;;;;;;1.00;0.40;;;;;;;;;;5142825;28;20046;-60
2023/12/15 13:40:06;;;;;;;;;;;;;;;;;;5142562;28;20046;-59
2023/12/15 13:42:37;;;;;;;1.00;0.30;;;;;;;;;;5158845;28;19918;-59
2023/12/15 13:45:09;;;;;;;0.68;0.40;;;;;;;;;;5126434;28;20066;-59
2023/12/15 13:47:40;;;;;;;1.10;0.60;;;;;;;;;;5126221;28;20493;-58
2023/12/15 13:50:11;;;;;;;1.05;0.40;;;;;;;;;;5158508;28;20081;-56
2023/12/15 13:52:43;;;;;;;1.55;0.20;;;;;;;;;;5132666;28;20665;-58
2023/12/15 13:55:14;;;;;;;1.15;0.30;;;;;;;;;;5131905;28;20046;-57
2023/12/15 13:57:45;;;;;;;0.68;0.28;;;;;;;;;;5142118;28;20046;-57
2023/12/15 14:00:17;;;;;;;0.80;0.20;;;;;;;;;;5125736;28;20126;-57
2023/12/15 14:02:48;;;;;;;0.68;0.28;;;;;;;;;;5126167;28;20312;-58
2023/12/15 14:05:19;;;;;;;1.20;0.20;;;;;;;;;;5146341;28;20347;-57
2023/12/15 14:07:50;;;;;;;0.95;0.43;;;;;;;;;;5141298;28;20125;-57
2023/12/15 14:10:21;;;;;;;0.60;0.38;;;;;;;;;;5157981;28;20041;-57
2023/12/15 14:12:53;;;;;;;2.45;0.38;;;;;;;;;;5145183;28;20041;-57
2023/12/15 14:15:24;;;;;;;1.55;0.40;;;;;;;;;;5142413;28;20504;-57
2023/12/15 14:17:55;;;;;;;1.75;0.30;;;;;;;;;;5145455;28;20043;-57
2023/12/15 14:20:27;;;;;;;0.67;0.20;;;;;;;;;;5141559;28;21801;-57
2023/12/15 14:22:58;;;;;;;1.02;0.30;;;;;;;;;;5143084;28;20042;-58
2023/12/15 14:25:29;;;;;;;1.20;0.40;;;;;;;;;;5141902;28;20058;-58
2023/12/15 14:28:00;;;;;;;0.70;0.28;;;;;;;;;;5145348;28;20082;-57
2023/12/15 14:30:31;;;;;;;0.93;0.40;;;;;;;;;;5143801;28;20035;-57
2023/12/15 14:33:03;;;;;;;0.43;0.17;;;;;;;;;;5129693;28;20035;-56
2023/12/15 14:35:34;;;;;;;0.77;0.20;;;;;;;;;;5130070;28;20042;-56
2023/12/15 14:38:05;;;;;;;0.73;0.20;;;;;;;;;;5145193;28;20034;-57
2023/12/15 14:40:36;;;;;;;4.10;0.65;;;;;;;;;;5145240;28;20078;-57
2023/12/15 14:43:07;;;;;;;3.33;0.63;;;;;;;;;;5128963;28;20518;-57
2023/12/15 14:45:39;;;;;;;3.80;0.50;;;;;;;;;;5125714;28;20042;-56
2023/12/15 14:48:10;;;;;;;0.93;0.40;;;;;;;;;;5147287;28;20058;-58
2023/12/15 14:50:41;;;;;;;0.90;0.38;;;;;;;;;;5147543;28;20047;-58
2023/12/15 14:53:12;;;;;;;3.13;0.30;;;;;;;;;;5128123;28;20110;-56
2023/12/15 14:55:43;;;;;;;0.87;0.40;;;;;;;;;;5128508;28;20070;-58
2023/12/15 14:58:14;;;;;;;1.38;0.10;;;;;;;;;;5153748;28;20466;-61
2023/12/15 15:00:45;;;;;;;0.40;0.20;;;;;;;;;;5144796;28;20043;-59
2023/12/15 15:03:16;;;;;;;0.40;0.20;;;;;;;;;;5128360;28;20130;-58
2023/12/15 15:05:48;;;;;;;0.30;0.20;;;;;;;;;;5144767;28;20137;-60
2023/12/15 15:08:19;;;;;;;1.05;0.25;;;;;;;;;;5146669;28;20121;-58